Ana Sayfa
METAR-TAF:

METAR-TAF

Havaalanları :

Port Moresby, Papua Yeni Gine

Enlem: 09-26S, Boylam: 147-13E, yükseklik: 38 m

Güncel hava durumu gözlemi

Rapor saat 14:00 UTC de 24 dakika önce yapıldı.
Rüzgar güneydoğudan 12 kt
Sıcaklık 25°C
Nem 100%
Basınç 1012 hPa
Görüş mesafesi 10 km veya daha fazla
5400 ft yükseklikte çok bulutlu

METAR: AYPY 221400Z 14012KT 9999 OVC054 25/25 Q1012

Saat: 00:24 (14:24 UTC)

Tahmin

Rapor saat 10:07 UTC de 4 saat ve 17 dakika önce yapıldı.
Ayın 22'si saat 12 UTC'den ayın 23'si saat 12 UTC'ye kadar geçerli Tahmin
Rüzgar güneydan 8 kt
Görüş mesafesi 10 km veya daha fazla
3500 ft yükseklikte parçalı çok bulutlu
Ayın 22'si saat 1800 UTC'den
Rüzgar kuzeydan kt
Görüş mesafesi 10 km veya daha fazla
3500 ft yükseklikte parçalı çok bulutlu

TAF: AYPY 221007Z 2212/2312 17008KT 9999 BKN035 FM221800 00000KT 9999 BKN035

4.000'den fazla havaalanı için hava durumu gözlemleri ve tahminleri (METAR ve TAF raporları).

Kullanılabilir istasyonlar harita üzerinde sarı ve kırmızı noktalarla gösterilir.

İstasyonun adını görmek için fareyi noktanın üzerinde gezdirin.

Sonrasında hava gözlem ve tahminlerini görmek için tıklayın.

Haritayı değiştirmek için: yaklaştırmak için siyah artı işaretli yeşil düğmeye ve uzaklaştırmak için de eksi işaretli düğmeye hızla tıklayın; bitişik haritalar için yeşil okları kullanın.


METAR-TAF: